Aberdeen, AR

11:07 AM CDT on May 28, 2015 (GMT -0500)
Stuttgart Municipal | | Change Station
CLOSE
Current Station
Airport
Location: Stuttgart,
Elevation: 223 ft
Nearby Weather Stations
Active Advisory: Flood Warning Active Notice: Record Report, Public Information Statement

Elev 223 ft 34.60 °N, 91.57 °W | Updated 12 minutes ago

Overcast
Overcast
72 °F
Feels Like 72 °F
N
0
Wind Variable Wind from North

Today
High -- | Low -- °F
--% Chance of Precip.
Yesterday
High -- | Low -- °F
Precip. -- in
5:55 AM 8:10 PM
Waxing Gibbous, 77% visible
Pressure 30.17 in
Visibility 10.0 miles
Clouds Overcast 800 ft
Dew Point 66 °F
Humidity 83%
Rainfall 0.00 in
Snow Depth Not available.
UV 3 out of 12
Pollen 5.90 out of 12
Air Quality Not available.
Flu Activity No Activity
METAR KSGT 281555Z AUTO 00000KT 10SM OVC008 22/19 A3017 RMK AO1

More Conditions Fewer Conditions

Pressure 30.17 in
Visibility 10.0 miles
Clouds Overcast 800 ft
Dew Point 66 °F
Humidity 83%
Rainfall 0.00 in
Snow Depth Not available.
UV 3 out of 12
Pollen 5.90 out of 12
Air Quality Not available.
Flu Activity No Activity
METAR KSGT 281555Z AUTO 00000KT 10SM OVC008 22/19 A3017 RMK AO1

More Conditions Fewer Conditions

10-Day Weather Forecast

Almanac

Astronomy

May. 28, 2015 Rise Set
Actual Time
Civil Twilight
Nautical Twilight
Astronomical Twilight
Moon
Length of Visible Light
Length of Day
Tomorrow will be .
, % of the Moon is Illuminated

Today's Extremes

State Highs State Lows

Community

WunderPhotos

Upload Photos

1,825,002 photos uploaded!

WunderBlogs® & News

Nearby

Air Quality

  Air Quality AQ Index Pollutant
Not available.

Snow Depth

Station Depth Elevation

Earthquake Activity

City Distance Mag. Time & Date
Minimum magnitude displayed is 2.5.

Coastal Water Temperatures

Place Temperature

Stations

Nearby Weather Stations

Station Location Temp. Windchill Dew Point Humidity Wind Precip. Elev Updated Type
                   
Flood Warning
Statement as of 10:29 AM CDT on May 28, 2015

The Flood Warning continues for
the White River at Clarendon.
* Until further notice... or until the warning is cancelled.
* At 10:00 am Thursday the stage was 28.0 feet.
* Minor flooding is occurring and minor flooding is forecast.
* Flood stage is 26.0 feet.
* Forecast... the river has crested and will fall to near 27.9 feet
by Friday morning.
* Impacts at 26.0 feet... river flows in many side channels and
creates islands between the river and sloughs and creeks. Flooding
of cropland and Timber is occurring. Portions of the National
wildlife Refuge downstream of Clarendon flooding.




             Fld observed forecast 7 am
location stg stg day time Fri Sat sun Mon Tue

Lower White River
Clarendon 26 28.0 Thu 10 am 27.9 27.8 27.6 27.4 27.3




Lat... Lon 3435 9119 3449 9132 3466 9139 3472 9129
3455 9120 3442 9108